Time,TemperatureF,DewpointF,PressureIn,WindDirection,WindDirectionDegrees,WindSpeedMPH,WindSpeedGustMPH,Humidity,HourlyPrecipIn,Conditions,Clouds,dailyrainin,SoftwareType,DateUTC
2013-09-03 00:01:00,60.4,34.1,29.96,SSW,201,3.6,3.6,37,0.00,,---,0.00,VWS V14.01,2013-09-03 06:01:00,
2013-09-03 00:06:00,60.1,33.8,29.96,South,172,0.0,3.6,37,0.00,,---,0.00,VWS V14.01,2013-09-03 06:06:00,
2013-09-03 00:11:00,59.7,33.4,29.96,South,175,0.0,3.6,37,0.00,,---,0.00,VWS V14.01,2013-09-03 06:11:00,
2013-09-03 00:16:00,59.5,33.9,29.96,South,175,0.0,0.0,38,0.00,,---,0.00,VWS V14.01,2013-09-03 06:16:00,
2013-09-03 00:21:00,59.2,33.6,29.96,South,175,0.0,0.0,38,0.00,,---,0.00,VWS V14.01,2013-09-03 06:21:00,
2013-09-03 00:26:00,58.6,33.8,29.96,South,175,0.0,0.0,39,0.00,,---,0.00,VWS V14.01,2013-09-03 06:26:00,
2013-09-03 00:31:00,58.5,33.6,29.96,South,175,0.0,0.0,39,0.00,,---,0.00,VWS V14.01,2013-09-03 06:31:00,
2013-09-03 00:36:00,58.3,33.5,29.99,South,175,0.0,0.0,39,0.00,,---,0.00,VWS V14.01,2013-09-03 06:36:00,
2013-09-03 00:41:00,58.1,33.3,29.99,South,175,0.0,0.0,39,0.00,,---,0.00,VWS V14.01,2013-09-03 06:41:00,
2013-09-03 00:46:00,58.1,33.3,29.99,South,175,0.0,0.0,39,0.00,,---,0.00,VWS V14.01,2013-09-03 06:46:00,
2013-09-03 00:51:00,58.1,33.9,29.99,South,175,0.0,0.0,40,0.00,,---,0.00,VWS V14.01,2013-09-03 06:51:00,
2013-09-03 00:56:00,58.3,34.1,29.99,South,175,0.0,0.0,40,0.00,,---,0.00,VWS V14.01,2013-09-03 06:56:00,
2013-09-03 01:01:00,58.5,34.2,29.99,South,175,0.0,0.0,40,0.00,,---,0.00,VWS V14.01,2013-09-03 07:01:00,
2013-09-03 01:06:00,58.5,34.2,29.99,South,175,0.0,0.0,40,0.00,,---,0.00,VWS V14.01,2013-09-03 07:06:00,
2013-09-03 01:11:00,58.3,34.1,29.99,South,175,0.0,0.0,40,0.00,,---,0.00,VWS V14.01,2013-09-03 07:11:00,
2013-09-03 01:16:00,58.5,34.9,29.99,South,175,0.0,0.0,41,0.00,,---,0.00,VWS V14.01,2013-09-03 07:16:00,
2013-09-03 01:21:00,58.5,34.2,29.99,South,175,0.0,0.0,40,0.00,,---,0.00,VWS V14.01,2013-09-03 07:21:00,
2013-09-03 01:26:00,58.6,35.0,29.99,South,175,0.0,0.0,41,0.00,,---,0.00,VWS V14.01,2013-09-03 07:26:00,
2013-09-03 01:31:00,58.8,35.2,29.99,South,175,0.0,0.0,41,0.00,,---,0.00,VWS V14.01,2013-09-03 07:31:00,
2013-09-03 01:36:00,58.8,35.2,29.99,South,175,0.0,0.0,41,0.00,,---,0.00,VWS V14.01,2013-09-03 07:36:00,
2013-09-03 01:41:00,58.8,35.2,29.99,South,175,0.0,0.0,41,0.00,,---,0.00,VWS V14.01,2013-09-03 07:41:00,
2013-09-03 01:46:00,58.8,35.2,29.99,South,175,0.0,0.0,41,0.00,,---,0.00,VWS V14.01,2013-09-03 07:46:00,
2013-09-03 01:51:00,58.8,35.2,29.99,South,175,0.0,0.0,41,0.00,,---,0.00,VWS V14.01,2013-09-03 07:51:00,
2013-09-03 01:56:00,58.8,35.2,29.99,South,175,0.0,0.0,41,0.00,,---,0.00,VWS V14.01,2013-09-03 07:56:00,
2013-09-03 02:01:00,59.0,35.3,29.99,South,175,0.0,0.0,41,0.00,,---,0.00,VWS V14.01,2013-09-03 08:01:00,
2013-09-03 02:06:00,59.4,35.7,29.99,South,175,0.0,0.0,41,0.00,,---,0.00,VWS V14.01,2013-09-03 08:06:00,
2013-09-03 02:11:00,59.5,35.8,29.99,South,175,0.0,0.0,41,0.00,,---,0.00,VWS V14.01,2013-09-03 08:11:00,
2013-09-03 02:16:00,59.5,35.2,29.99,South,175,0.0,0.0,40,0.00,,---,0.00,VWS V14.01,2013-09-03 08:16:00,
2013-09-03 02:21:00,58.8,35.2,29.99,South,175,0.0,0.0,41,0.00,,---,0.00,VWS V14.01,2013-09-03 08:21:00,
2013-09-03 02:26:00,58.3,34.7,29.99,South,175,0.0,0.0,41,0.00,,---,0.00,VWS V14.01,2013-09-03 08:26:00,
2013-09-03 02:31:00,58.1,35.2,29.99,South,175,0.0,0.0,42,0.00,,---,0.00,VWS V14.01,2013-09-03 08:31:00,
2013-09-03 02:36:00,57.6,34.7,29.99,South,175,0.0,0.0,42,0.00,,---,0.00,VWS V14.01,2013-09-03 08:36:00,
2013-09-03 02:41:00,57.7,35.4,29.99,South,175,0.0,0.0,43,0.00,,---,0.00,VWS V14.01,2013-09-03 08:41:00,
2013-09-03 02:46:00,57.9,35.6,29.99,South,175,0.0,0.0,43,0.00,,---,0.00,VWS V14.01,2013-09-03 08:46:00,
2013-09-03 02:51:00,58.3,35.9,29.99,South,175,0.0,0.0,43,0.00,,---,0.00,VWS V14.01,2013-09-03 08:51:00,
2013-09-03 02:56:00,58.5,36.1,29.99,South,175,0.0,0.0,43,0.00,,---,0.00,VWS V14.01,2013-09-03 08:56:00,
2013-09-03 03:01:00,58.8,37.0,29.99,South,175,0.0,0.0,44,0.00,,---,0.00,VWS V14.01,2013-09-03 09:01:00,
2013-09-03 03:06:00,59.0,36.6,29.99,South,175,0.0,0.0,43,0.00,,---,0.00,VWS V14.01,2013-09-03 09:06:00,
2013-09-03 03:11:00,59.4,36.9,29.99,South,175,0.0,0.0,43,0.00,,---,0.00,VWS V14.01,2013-09-03 09:11:00,
2013-09-03 03:15:00,59.7,37.2,29.99,South,175,0.0,0.0,43,0.00,,---,0.00,VWS V14.01,2013-09-03 09:15:00,
2013-09-03 03:20:00,60.1,37.5,29.99,South,175,0.0,0.0,43,0.00,,---,0.00,VWS V14.01,2013-09-03 09:20:00,
2013-09-03 03:25:00,60.3,37.1,29.99,South,175,0.0,0.0,42,0.00,,---,0.00,VWS V14.01,2013-09-03 09:25:00,
2013-09-03 03:30:00,60.4,37.3,29.99,South,175,0.0,0.0,42,0.00,,---,0.00,VWS V14.01,2013-09-03 09:30:00,
2013-09-03 03:35:00,60.3,37.1,29.99,South,175,0.0,0.0,42,0.00,,---,0.00,VWS V14.01,2013-09-03 09:35:00,
2013-09-03 03:40:00,60.3,37.1,29.99,South,175,0.0,0.0,42,0.00,,---,0.00,VWS V14.01,2013-09-03 09:40:00,
2013-09-03 03:45:00,60.3,37.1,29.99,South,175,0.0,0.0,42,0.00,,---,0.00,VWS V14.01,2013-09-03 09:45:00,
2013-09-03 03:50:00,60.3,37.1,30.02,South,175,0.0,0.0,42,0.00,,---,0.00,VWS V14.01,2013-09-03 09:50:00,
2013-09-03 03:55:00,60.3,37.1,30.02,South,175,0.0,0.0,42,0.00,,---,0.00,VWS V14.01,2013-09-03 09:55:00,
2013-09-03 04:00:00,60.4,37.3,30.02,South,175,0.0,0.0,42,0.00,,---,0.00,VWS V14.01,2013-09-03 10:00:00,
2013-09-03 04:05:00,60.4,37.3,30.02,South,175,0.0,0.0,42,0.00,,---,0.00,VWS V14.01,2013-09-03 10:05:00,
2013-09-03 04:10:00,60.4,37.3,30.02,South,175,0.0,0.0,42,0.00,,---,0.00,VWS V14.01,2013-09-03 10:10:00,
2013-09-03 04:15:00,60.4,37.3,30.02,South,175,0.0,0.0,42,0.00,,---,0.00,VWS V14.01,2013-09-03 10:15:00,
2013-09-03 04:20:00,60.6,37.4,29.99,South,175,0.0,0.0,42,0.00,,---,0.00,VWS V14.01,2013-09-03 10:20:00,
2013-09-03 04:25:00,60.8,37.0,29.99,South,175,0.0,0.0,41,0.00,,---,0.00,VWS V14.01,2013-09-03 10:25:00,
2013-09-03 04:30:00,60.8,37.0,29.99,South,175,0.0,0.0,41,0.00,,---,0.00,VWS V14.01,2013-09-03 10:30:00,
2013-09-03 04:35:00,60.8,37.0,29.99,South,175,0.0,0.0,41,0.00,,---,0.00,VWS V14.01,2013-09-03 10:35:00,
2013-09-03 04:40:00,60.8,37.0,29.99,South,175,0.0,0.0,41,0.00,,---,0.00,VWS V14.01,2013-09-03 10:40:00,
2013-09-03 04:45:00,60.6,37.4,29.99,South,175,0.0,0.0,42,0.00,,---,0.00,VWS V14.01,2013-09-03 10:45:00,
2013-09-03 04:50:00,60.8,37.0,29.99,South,175,0.0,0.0,41,0.00,,---,0.00,VWS V14.01,2013-09-03 10:50:00,
2013-09-03 04:55:00,60.8,37.0,29.99,South,175,0.0,0.0,41,0.00,,---,0.00,VWS V14.01,2013-09-03 10:55:00,
2013-09-03 05:00:00,61.0,37.8,29.99,South,177,4.0,4.0,42,0.00,,---,0.00,VWS V14.01,2013-09-03 11:00:00,
2013-09-03 05:05:00,61.9,36.7,29.99,SSE,167,5.8,7.6,39,0.00,,---,0.00,VWS V14.01,2013-09-03 11:05:00,
2013-09-03 05:10:00,63.0,36.3,29.99,SSW,195,5.4,7.6,37,0.00,,---,0.00,VWS V14.01,2013-09-03 11:10:00,
2013-09-03 05:15:00,63.5,36.8,29.99,SW,231,0.0,0.0,37,0.00,,---,0.00,VWS V14.01,2013-09-03 11:15:00,
2013-09-03 05:20:00,63.3,35.9,29.99,WSW,251,0.0,3.1,36,0.00,,---,0.00,VWS V14.01,2013-09-03 11:20:00,
2013-09-03 05:25:00,63.0,35.6,29.99,WSW,251,0.0,3.1,36,0.00,,---,0.00,VWS V14.01,2013-09-03 11:25:00,
2013-09-03 05:30:00,62.6,35.3,29.99,WSW,253,0.0,0.0,36,0.00,,---,0.00,VWS V14.01,2013-09-03 11:30:00,
2013-09-03 05:35:00,62.2,35.7,29.99,WSW,253,0.0,0.0,37,0.00,,---,0.00,VWS V14.01,2013-09-03 11:35:00,
2013-09-03 05:40:00,61.9,35.3,29.99,SSE,152,0.0,0.0,37,0.00,,---,0.00,VWS V14.01,2013-09-03 11:40:00,
2013-09-03 05:45:00,61.5,35.7,29.99,SE,140,0.0,0.0,38,0.00,,---,0.00,VWS V14.01,2013-09-03 11:45:00,
2013-09-03 05:50:00,61.0,35.9,29.99,SSE,149,0.0,3.1,39,0.00,,---,0.00,VWS V14.01,2013-09-03 11:50:00,
2013-09-03 05:55:00,60.6,36.2,29.99,SSE,149,0.0,3.1,40,0.00,,---,0.00,VWS V14.01,2013-09-03 11:55:00,
2013-09-03 06:00:00,60.4,36.0,29.99,SSE,149,0.0,0.0,40,0.00,,---,0.00,VWS V14.01,2013-09-03 12:00:00,
2013-09-03 06:05:00,60.6,36.2,29.99,SSE,149,0.0,0.0,40,0.00,,---,0.00,VWS V14.01,2013-09-03 12:05:00,
2013-09-03 06:10:00,60.6,36.8,29.99,SSE,149,0.0,0.0,41,0.00,,---,0.00,VWS V14.01,2013-09-03 12:10:00,
2013-09-03 06:15:00,60.8,37.0,29.99,SSE,149,0.0,0.0,41,0.00,,---,0.00,VWS V14.01,2013-09-03 12:15:00,
2013-09-03 06:20:00,61.0,36.5,29.99,SSE,149,0.0,0.0,40,0.00,,---,0.00,VWS V14.01,2013-09-03 12:20:00,
2013-09-03 06:25:00,61.0,37.1,29.99,SSE,149,0.0,0.0,41,0.00,,---,0.00,VWS V14.01,2013-09-03 12:25:00,
2013-09-03 06:30:00,61.0,37.8,29.99,SSE,149,0.0,0.0,42,0.00,,---,0.00,VWS V14.01,2013-09-03 12:30:00,
2013-09-03 06:35:00,61.0,37.1,29.99,SSE,149,0.0,0.0,41,0.00,,---,0.00,VWS V14.01,2013-09-03 12:35:00,
2013-09-03 06:40:00,61.3,36.8,29.99,SSE,149,0.0,0.0,40,0.00,,---,0.00,VWS V14.01,2013-09-03 12:40:00,
2013-09-03 06:45:00,61.7,37.2,29.99,SSE,149,0.0,0.0,40,0.00,,---,0.00,VWS V14.01,2013-09-03 12:45:00,
2013-09-03 06:50:00,61.7,36.5,30.02,SSE,149,0.0,0.0,39,0.00,,---,0.00,VWS V14.01,2013-09-03 12:50:00,
2013-09-03 06:55:00,61.9,36.7,30.02,SSE,149,0.0,0.0,39,0.00,,---,0.00,VWS V14.01,2013-09-03 12:55:00,
2013-09-03 07:00:00,61.7,37.2,30.02,SSE,149,0.0,0.0,40,0.00,,---,0.00,VWS V14.01,2013-09-03 13:00:00,
2013-09-03 07:05:00,61.5,37.0,30.02,SSE,149,0.0,0.0,40,0.00,,---,0.00,VWS V14.01,2013-09-03 13:05:00,
2013-09-03 07:10:00,61.7,37.2,30.02,SE,145,0.0,0.0,40,0.00,,---,0.00,VWS V14.01,2013-09-03 13:10:00,
2013-09-03 07:15:00,61.7,37.2,30.02,South,177,0.0,0.0,40,0.00,,---,0.00,VWS V14.01,2013-09-03 13:15:00,
2013-09-03 07:20:00,61.5,37.0,30.02,South,177,0.0,0.0,40,0.00,,---,0.00,VWS V14.01,2013-09-03 13:20:00,
2013-09-03 07:25:00,61.3,36.8,30.02,South,177,0.0,0.0,40,0.00,,---,0.00,VWS V14.01,2013-09-03 13:25:00,
2013-09-03 07:30:00,61.3,36.8,30.02,South,177,0.0,0.0,40,0.00,,---,0.00,VWS V14.01,2013-09-03 13:30:00,
2013-09-03 07:35:00,61.5,37.0,30.02,South,177,0.0,0.0,40,0.00,,---,0.00,VWS V14.01,2013-09-03 13:35:00,
2013-09-03 07:40:00,61.5,37.6,30.02,South,177,0.0,0.0,41,0.00,,---,0.00,VWS V14.01,2013-09-03 13:40:00,
2013-09-03 07:45:00,61.3,38.1,30.02,South,177,0.0,0.0,42,0.00,,---,0.00,VWS V14.01,2013-09-03 13:45:00,
2013-09-03 07:50:00,61.7,37.8,30.02,South,177,0.0,0.0,41,0.00,,---,0.00,VWS V14.01,2013-09-03 13:50:00,
2013-09-03 07:55:00,61.9,38.0,30.02,South,177,0.0,0.0,41,0.00,,---,0.00,VWS V14.01,2013-09-03 13:55:00,
2013-09-03 08:00:00,62.1,38.1,30.02,South,177,0.0,0.0,41,0.00,,---,0.00,VWS V14.01,2013-09-03 14:00:00,
2013-09-03 08:05:00,62.2,38.3,30.02,South,177,0.0,0.0,41,0.00,,---,0.00,VWS V14.01,2013-09-03 14:05:00,
2013-09-03 08:10:00,62.4,39.0,30.02,South,177,0.0,0.0,42,0.00,,---,0.00,VWS V14.01,2013-09-03 14:10:00,
2013-09-03 08:15:00,62.4,39.0,30.02,South,177,0.0,0.0,42,0.00,,---,0.00,VWS V14.01,2013-09-03 14:15:00,
2013-09-03 08:20:00,62.4,39.7,30.02,South,177,0.0,0.0,43,0.00,,---,0.00,VWS V14.01,2013-09-03 14:20:00,
2013-09-03 08:25:00,62.4,39.0,30.02,South,177,0.0,0.0,42,0.00,,---,0.00,VWS V14.01,2013-09-03 14:25:00,
2013-09-03 08:30:00,62.6,39.2,30.02,South,177,0.0,0.0,42,0.00,,---,0.00,VWS V14.01,2013-09-03 14:30:00,
2013-09-03 08:35:00,63.0,39.5,30.02,South,177,0.0,0.0,42,0.00,,---,0.00,VWS V14.01,2013-09-03 14:35:00,
2013-09-03 08:40:00,63.1,39.7,30.02,South,177,0.0,0.0,42,0.00,,---,0.00,VWS V14.01,2013-09-03 14:40:00,
2013-09-03 08:45:00,63.5,40.0,30.02,South,177,0.0,0.0,42,0.00,,---,0.00,VWS V14.01,2013-09-03 14:45:00,
2013-09-03 08:50:00,65.3,42.2,30.05,South,177,0.0,0.0,43,0.00,,---,0.00,VWS V14.01,2013-09-03 14:50:00,
2013-09-03 08:55:00,66.6,41.5,30.05,South,177,0.0,0.0,40,0.00,,---,0.00,VWS V14.01,2013-09-03 14:55:00,
2013-09-03 09:00:00,66.4,40.7,30.05,SSE,148,0.0,0.0,39,0.00,,---,0.00,VWS V14.01,2013-09-03 15:00:00,
2013-09-03 09:05:00,66.4,40.0,30.05,SSE,148,0.0,0.0,38,0.00,,---,0.00,VWS V14.01,2013-09-03 15:05:00,
2013-09-03 09:10:00,66.2,39.9,30.05,ESE,118,0.0,0.0,38,0.00,,---,0.00,VWS V14.01,2013-09-03 15:10:00,
2013-09-03 09:15:00,65.7,39.4,30.05,ESE,117,0.0,0.0,38,0.00,,---,0.00,VWS V14.01,2013-09-03 15:15:00,
2013-09-03 09:20:00,65.7,39.4,30.05,ESE,117,0.0,0.0,38,0.00,,---,0.00,VWS V14.01,2013-09-03 15:20:00,
2013-09-03 09:25:00,65.8,40.2,30.05,ESE,117,0.0,0.0,39,0.00,,---,0.00,VWS V14.01,2013-09-03 15:25:00,
2013-09-03 09:30:00,66.2,39.9,30.05,ESE,117,0.0,0.0,38,0.00,,---,0.00,VWS V14.01,2013-09-03 15:30:00,
2013-09-03 09:35:00,66.7,40.3,30.05,ESE,117,0.0,0.0,38,0.00,,---,0.00,VWS V14.01,2013-09-03 15:35:00,
2013-09-03 09:40:00,68.0,40.8,30.05,ESE,117,0.0,0.0,37,0.00,,---,0.00,VWS V14.01,2013-09-03 15:40:00,
2013-09-03 09:45:00,68.7,40.7,30.05,ESE,105,0.0,0.0,36,0.00,,---,0.00,VWS V14.01,2013-09-03 15:45:00,
2013-09-03 09:50:00,69.4,40.6,30.05,East,100,0.0,0.0,35,0.00,,---,0.00,VWS V14.01,2013-09-03 15:50:00,
2013-09-03 09:55:00,69.4,39.9,30.05,SE,142,0.0,0.0,34,0.00,,---,0.00,VWS V14.01,2013-09-03 15:55:00,
2013-09-03 10:00:00,69.4,39.9,30.05,ENE,70,0.0,0.0,34,0.00,,---,0.00,VWS V14.01,2013-09-03 16:00:00,
2013-09-03 10:05:00,69.6,39.3,30.05,ENE,70,0.0,0.0,33,0.00,,---,0.00,VWS V14.01,2013-09-03 16:05:00,
2013-09-03 10:10:00,70.0,39.6,30.05,ENE,70,0.0,0.0,33,0.00,,---,0.00,VWS V14.01,2013-09-03 16:10:00,
2013-09-03 10:15:00,71.4,40.0,30.05,ENE,70,0.0,0.0,32,0.00,,---,0.00,VWS V14.01,2013-09-03 16:15:00,
2013-09-03 10:20:00,73.2,40.8,30.05,ENE,74,0.0,0.0,31,0.00,,---,0.00,VWS V14.01,2013-09-03 16:20:00,
2013-09-03 10:25:00,74.8,42.2,30.05,ESE,117,0.0,0.0,31,0.00,,---,0.00,VWS V14.01,2013-09-03 16:25:00,
2013-09-03 10:30:00,76.3,38.9,30.05,NNE,33,0.0,0.0,26,0.00,,---,0.00,VWS V14.01,2013-09-03 16:30:00,
2013-09-03 10:35:00,77.5,39.0,30.05,ESE,103,0.0,0.0,25,0.00,,---,0.00,VWS V14.01,2013-09-03 16:35:00,
2013-09-03 10:40:00,77.2,37.6,30.05,SSE,161,0.0,0.0,24,0.00,,---,0.00,VWS V14.01,2013-09-03 16:40:00,
2013-09-03 10:45:00,76.5,37.0,30.05,SE,125,0.0,0.0,24,0.00,,---,0.00,VWS V14.01,2013-09-03 16:45:00,
2013-09-03 10:50:00,75.6,35.2,30.05,East,100,0.0,0.0,23,0.00,,---,0.00,VWS V14.01,2013-09-03 16:50:00,
2013-09-03 10:55:00,74.7,35.5,30.02,East,100,0.0,0.0,24,0.00,,---,0.00,VWS V14.01,2013-09-03 16:55:00,
2013-09-03 11:00:00,73.9,34.9,30.02,East,100,0.0,0.0,24,0.00,,---,0.00,VWS V14.01,2013-09-03 17:00:00,
2013-09-03 11:05:00,73.2,35.3,30.05,East,100,0.0,0.0,25,0.00,,---,0.00,VWS V14.01,2013-09-03 17:05:00,
2013-09-03 11:10:00,72.9,35.0,30.05,East,100,0.0,0.0,25,0.00,,---,0.00,VWS V14.01,2013-09-03 17:10:00,
2013-09-03 11:15:00,72.5,35.7,30.05,East,100,0.0,0.0,26,0.00,,---,0.00,VWS V14.01,2013-09-03 17:15:00,
2013-09-03 11:20:00,72.5,35.7,30.05,East,100,0.0,0.0,26,0.00,,---,0.00,VWS V14.01,2013-09-03 17:20:00,
2013-09-03 11:25:00,72.5,35.7,30.05,East,100,0.0,0.0,26,0.00,,---,0.00,VWS V14.01,2013-09-03 17:25:00,
2013-09-03 11:30:00,72.3,35.5,30.05,East,100,0.0,0.0,26,0.00,,---,0.00,VWS V14.01,2013-09-03 17:30:00,
2013-09-03 11:35:00,72.3,35.5,30.05,East,100,0.0,0.0,26,0.00,,---,0.00,VWS V14.01,2013-09-03 17:35:00,
2013-09-03 11:40:00,72.1,35.4,30.05,East,100,0.0,0.0,26,0.00,,---,0.00,VWS V14.01,2013-09-03 17:40:00,
2013-09-03 11:45:00,72.0,35.2,30.05,East,100,0.0,0.0,26,0.00,,---,0.00,VWS V14.01,2013-09-03 17:45:00,
2013-09-03 11:50:00,72.0,35.2,30.05,East,100,0.0,0.0,26,0.00,,---,0.00,VWS V14.01,2013-09-03 17:50:00,
2013-09-03 11:55:00,72.5,36.7,30.05,East,100,0.0,0.0,27,0.00,,---,0.00,VWS V14.01,2013-09-03 17:55:00,
2013-09-03 12:00:00,73.8,37.7,30.05,East,100,0.0,0.0,27,0.00,,---,0.00,VWS V14.01,2013-09-03 18:00:00,
2013-09-03 12:05:00,74.8,37.7,30.05,East,100,0.0,0.0,26,0.00,,---,0.00,VWS V14.01,2013-09-03 18:05:00,
2013-09-03 12:10:00,77.0,37.5,30.05,East,100,0.0,0.0,24,0.00,,---,0.00,VWS V14.01,2013-09-03 18:10:00,
2013-09-03 12:15:00,79.3,38.4,30.05,East,100,0.0,0.0,23,0.00,,---,0.00,VWS V14.01,2013-09-03 18:15:00,
2013-09-03 12:20:00,79.3,36.0,30.05,SE,125,0.0,0.0,21,0.00,,---,0.00,VWS V14.01,2013-09-03 18:20:00,
2013-09-03 12:25:00,79.2,35.9,30.05,ESE,117,0.0,0.0,21,0.00,,---,0.00,VWS V14.01,2013-09-03 18:25:00,
2013-09-03 12:30:00,78.8,35.6,30.05,ESE,110,0.0,0.0,21,0.00,,---,0.00,VWS V14.01,2013-09-03 18:30:00,
2013-09-03 12:35:00,78.8,35.6,30.05,East,92,0.0,0.0,21,0.00,,---,0.00,VWS V14.01,2013-09-03 18:35:00,
2013-09-03 12:40:00,79.2,35.9,30.02,East,92,0.0,0.0,21,0.00,,---,0.00,VWS V14.01,2013-09-03 18:40:00,
2013-09-03 12:45:00,79.2,35.9,30.02,East,91,0.0,0.0,21,0.00,,---,0.00,VWS V14.01,2013-09-03 18:45:00,
2013-09-03 12:50:00,78.6,35.5,30.02,East,101,0.0,0.0,21,0.00,,---,0.00,VWS V14.01,2013-09-03 18:50:00,
2013-09-03 12:55:00,78.4,35.3,30.02,East,101,0.0,0.0,21,0.00,,---,0.00,VWS V14.01,2013-09-03 18:55:00,
2013-09-03 13:00:00,78.4,35.3,30.02,East,101,0.0,0.0,21,0.00,,---,0.00,VWS V14.01,2013-09-03 19:00:00,
2013-09-03 13:05:00,78.6,35.5,30.02,NNE,13,0.0,0.0,21,0.00,,---,0.00,VWS V14.01,2013-09-03 19:05:00,
2013-09-03 13:10:00,78.4,35.3,30.02,ENE,58,0.0,0.0,21,0.00,,---,0.00,VWS V14.01,2013-09-03 19:10:00,
2013-09-03 13:15:00,78.8,35.6,30.02,ENE,58,0.0,0.0,21,0.00,,---,0.00,VWS V14.01,2013-09-03 19:15:00,
2013-09-03 13:20:00,79.3,36.0,30.02,NNE,26,0.0,0.0,21,0.00,,---,0.00,VWS V14.01,2013-09-03 19:20:00,
2013-09-03 13:25:00,79.9,36.5,30.02,North,2,0.0,0.0,21,0.00,,---,0.00,VWS V14.01,2013-09-03 19:25:00,
2013-09-03 13:30:00,80.8,36.0,30.02,ENE,59,0.0,0.0,20,0.00,,---,0.00,VWS V14.01,2013-09-03 19:30:00,
2013-09-03 13:35:00,81.7,36.8,30.02,ENE,59,0.0,0.0,20,0.00,,---,0.00,VWS V14.01,2013-09-03 19:35:00,
2013-09-03 13:40:00,81.1,36.3,30.02,NE,53,0.0,0.0,20,0.00,,---,0.00,VWS V14.01,2013-09-03 19:40:00,
2013-09-03 13:45:00,80.1,36.7,30.02,NE,53,0.0,0.0,21,0.00,,---,0.00,VWS V14.01,2013-09-03 19:45:00,
2013-09-03 13:50:00,79.3,36.0,30.02,North,353,0.0,0.0,21,0.00,,---,0.00,VWS V14.01,2013-09-03 19:50:00,
2013-09-03 13:55:00,79.5,36.2,30.02,North,353,0.0,0.0,21,0.00,,---,0.00,VWS V14.01,2013-09-03 19:55:00,
2013-09-03 14:00:00,79.9,36.5,30.02,NNE,12,0.0,0.0,21,0.00,,---,0.00,VWS V14.01,2013-09-03 20:00:00,
2013-09-03 14:05:00,79.3,36.0,30.02,NNE,12,0.0,0.0,21,0.00,,---,0.00,VWS V14.01,2013-09-03 20:05:00,
2013-09-03 14:10:00,78.3,35.2,30.02,North,11,0.0,0.0,21,0.00,,---,0.00,VWS V14.01,2013-09-03 20:10:00,
2013-09-03 14:15:00,77.5,34.6,30.02,North,11,0.0,0.0,21,0.00,,---,0.00,VWS V14.01,2013-09-03 20:15:00,
2013-09-03 14:20:00,76.8,35.1,30.02,North,11,0.0,0.0,22,0.00,,---,0.00,VWS V14.01,2013-09-03 20:20:00,
2013-09-03 14:25:00,76.5,36.0,30.02,NNE,12,0.0,0.0,23,0.00,,---,0.00,VWS V14.01,2013-09-03 20:25:00,
2013-09-03 14:30:00,76.6,36.1,30.02,NNE,12,0.0,0.0,23,0.00,,---,0.00,VWS V14.01,2013-09-03 20:30:00,
2013-09-03 14:35:00,75.2,36.0,30.02,NNE,12,0.0,0.0,24,0.00,,---,0.00,VWS V14.01,2013-09-03 20:35:00,
2013-09-03 14:40:00,74.1,36.1,30.02,NNE,12,0.0,0.0,25,0.00,,---,0.00,VWS V14.01,2013-09-03 20:40:00,
2013-09-03 14:45:00,73.9,41.4,30.02,NNE,20,0.0,0.0,31,0.00,,---,0.00,VWS V14.01,2013-09-03 20:45:00,
2013-09-03 14:50:00,73.6,41.9,30.02,SSE,162,0.0,2.2,32,0.00,,---,0.00,VWS V14.01,2013-09-03 20:50:00,
2013-09-03 14:55:00,73.4,41.8,30.02,SSE,162,0.0,3.1,32,0.00,,---,0.00,VWS V14.01,2013-09-03 20:55:00,
2013-09-03 15:00:00,73.2,42.4,30.02,SSE,162,0.0,3.1,33,0.00,,---,0.00,VWS V14.01,2013-09-03 21:00:00,
2013-09-03 15:05:00,72.1,44.5,30.02,SE,144,0.0,0.0,37,0.00,,---,0.00,VWS V14.01,2013-09-03 21:05:00,
2013-09-03 15:10:00,71.6,44.7,30.05,SSE,147,0.0,0.0,38,0.00,,---,0.00,VWS V14.01,2013-09-03 21:10:00,
2013-09-03 15:14:00,71.8,44.8,30.05,SE,145,0.0,4.0,38,0.00,,---,0.00,VWS V14.01,2013-09-03 21:14:00,
2013-09-03 15:19:00,72.3,44.6,30.05,ESE,116,2.2,3.6,37,0.00,,---,0.00,VWS V14.01,2013-09-03 21:19:00,
2013-09-03 15:24:00,72.9,45.1,30.05,ENE,70,0.0,3.6,37,0.00,,---,0.00,VWS V14.01,2013-09-03 21:24:00,
2013-09-03 15:29:00,73.6,45.0,30.05,SSE,154,2.7,3.6,36,0.00,,---,0.00,VWS V14.01,2013-09-03 21:29:00,
2013-09-03 15:34:00,74.1,45.5,30.05,SSW,193,3.6,3.6,36,0.00,,---,0.00,VWS V14.01,2013-09-03 21:34:00,
2013-09-03 15:39:00,74.7,44.5,30.05,South,174,3.1,4.9,34,0.00,,---,0.00,VWS V14.01,2013-09-03 21:39:00,
2013-09-03 15:44:00,75.0,44.0,30.05,SSW,195,3.6,5.4,33,0.00,,---,0.00,VWS V14.01,2013-09-03 21:44:00,
2013-09-03 15:49:00,75.4,43.5,30.05,SSW,192,2.2,5.4,32,0.00,,---,0.00,VWS V14.01,2013-09-03 21:49:00,
2013-09-03 15:54:00,75.9,44.0,30.05,SSE,166,3.1,5.4,32,0.00,,---,0.00,VWS V14.01,2013-09-03 21:54:00,
2013-09-03 15:59:00,76.1,44.1,30.05,SE,143,0.0,5.4,32,0.00,,---,0.00,VWS V14.01,2013-09-03 21:59:00,
2013-09-03 16:04:00,76.8,44.8,30.05,SE,143,0.0,2.7,32,0.00,,---,0.00,VWS V14.01,2013-09-03 22:04:00,
2013-09-03 16:09:00,78.1,45.0,30.02,SE,143,0.0,2.7,31,0.00,,---,0.00,VWS V14.01,2013-09-03 22:09:00,
2013-09-03 16:14:00,79.0,44.9,30.02,South,175,0.0,2.7,30,0.00,,---,0.00,VWS V14.01,2013-09-03 22:14:00,
2013-09-03 16:19:00,79.0,44.9,30.02,South,175,0.0,0.0,30,0.00,,---,0.00,VWS V14.01,2013-09-03 22:19:00,
2013-09-03 16:24:00,78.4,44.5,30.02,SSE,167,0.0,0.0,30,0.00,,---,0.00,VWS V14.01,2013-09-03 22:24:00,
2013-09-03 16:29:00,78.4,44.5,30.02,SSE,166,0.0,0.0,30,0.00,,---,0.00,VWS V14.01,2013-09-03 22:29:00,
2013-09-03 16:34:00,78.6,42.8,30.02,SSE,166,0.0,0.0,28,0.00,,---,0.00,VWS V14.01,2013-09-03 22:34:00,
2013-09-03 16:39:00,78.4,42.7,30.02,SSE,166,0.0,0.0,28,0.00,,---,0.00,VWS V14.01,2013-09-03 22:39:00,
2013-09-03 16:44:00,78.6,43.7,30.02,SSW,213,0.0,0.0,29,0.00,,---,0.00,VWS V14.01,2013-09-03 22:44:00,
2013-09-03 16:49:00,78.8,43.0,30.02,SSW,213,0.0,0.0,28,0.00,,---,0.00,VWS V14.01,2013-09-03 22:49:00,
2013-09-03 16:54:00,79.0,42.2,30.02,SSW,213,0.0,0.0,27,0.00,,---,0.00,VWS V14.01,2013-09-03 22:54:00,
2013-09-03 16:59:00,79.0,42.2,30.02,SSW,213,0.0,0.0,27,0.00,,---,0.00,VWS V14.01,2013-09-03 22:59:00,
2013-09-03 17:04:00,79.0,42.2,30.02,SW,218,0.0,0.0,27,0.00,,---,0.00,VWS V14.01,2013-09-03 23:04:00,
2013-09-03 17:09:00,79.0,44.0,30.02,ENE,66,0.0,0.0,29,0.00,,---,0.00,VWS V14.01,2013-09-03 23:09:00,
2013-09-03 17:14:00,79.2,43.3,30.02,NE,41,0.0,0.0,28,0.00,,---,0.00,VWS V14.01,2013-09-03 23:14:00,
2013-09-03 17:19:00,79.3,44.4,30.02,NNE,17,0.0,0.0,29,0.00,,---,0.00,VWS V14.01,2013-09-03 23:19:00,
2013-09-03 17:24:00,79.5,44.5,30.02,NNE,18,0.0,0.0,29,0.00,,---,0.00,VWS V14.01,2013-09-03 23:24:00,
2013-09-03 17:29:00,80.2,43.3,30.02,NE,37,0.0,0.0,27,0.00,,---,0.00,VWS V14.01,2013-09-03 23:29:00,
2013-09-03 17:34:00,81.0,41.9,30.02,NE,37,0.0,0.0,25,0.00,,---,0.00,VWS V14.01,2013-09-03 23:34:00,
2013-09-03 17:39:00,81.1,41.0,30.02,NNE,29,0.0,0.0,24,0.00,,---,0.00,VWS V14.01,2013-09-03 23:39:00,
2013-09-03 17:44:00,80.6,41.6,30.02,NE,52,0.0,2.7,25,0.00,,---,0.00,VWS V14.01,2013-09-03 23:44:00,
2013-09-03 17:49:00,79.9,41.0,30.02,ENE,62,0.0,0.0,25,0.00,,---,0.00,VWS V14.01,2013-09-03 23:49:00,
2013-09-03 17:54:00,79.0,41.2,30.02,NE,37,0.0,0.0,26,0.00,,---,0.00,VWS V14.01,2013-09-03 23:54:00,
2013-09-03 17:59:00,78.4,40.8,30.02,NNE,25,0.0,0.0,26,0.00,,---,0.00,VWS V14.01,2013-09-03 23:59:00,
2013-09-03 18:04:00,78.3,40.6,30.02,North,2,0.0,0.0,26,0.00,,---,0.00,VWS V14.01,2013-09-04 00:04:00,
2013-09-03 18:09:00,77.7,40.1,30.02,NE,46,0.0,2.2,26,0.00,,---,0.00,VWS V14.01,2013-09-04 00:09:00,
2013-09-03 18:14:00,77.0,39.5,30.02,NE,45,0.0,2.2,26,0.00,,---,0.00,VWS V14.01,2013-09-04 00:14:00,
2013-09-03 18:19:00,76.3,39.9,30.02,NNE,18,0.0,2.7,27,0.00,,---,0.00,VWS V14.01,2013-09-04 00:19:00,
2013-09-03 18:24:00,75.7,39.4,30.02,NNE,12,0.0,2.7,27,0.00,,---,0.00,VWS V14.01,2013-09-04 00:24:00,
2013-09-03 18:29:00,75.4,40.0,30.02,NNW,340,0.0,2.7,28,0.00,,---,0.00,VWS V14.01,2013-09-04 00:29:00,
2013-09-03 18:34:00,75.0,39.7,30.02,North,353,0.0,0.0,28,0.00,,---,0.00,VWS V14.01,2013-09-04 00:34:00,
2013-09-03 18:39:00,74.8,40.5,30.02,North,353,0.0,0.0,29,0.00,,---,0.00,VWS V14.01,2013-09-04 00:39:00,
2013-09-03 18:44:00,74.7,40.3,30.02,North,353,0.0,0.0,29,0.00,,---,0.00,VWS V14.01,2013-09-04 00:44:00,
2013-09-03 18:49:00,74.3,40.0,30.02,North,357,0.0,0.0,29,0.00,,---,0.00,VWS V14.01,2013-09-04 00:49:00,
2013-09-03 18:54:00,74.1,39.9,30.02,North,357,0.0,0.0,29,0.00,,---,0.00,VWS V14.01,2013-09-04 00:54:00,
2013-09-03 18:59:00,73.9,40.6,30.02,North,357,0.0,0.0,30,0.00,,---,0.00,VWS V14.01,2013-09-04 00:59:00,
2013-09-03 19:04:00,73.8,40.4,30.02,North,357,0.0,0.0,30,0.00,,---,0.00,VWS V14.01,2013-09-04 01:04:00,
2013-09-03 19:09:00,73.6,40.3,30.02,North,357,0.0,0.0,30,0.00,,---,0.00,VWS V14.01,2013-09-04 01:09:00,
2013-09-03 19:14:00,73.2,40.8,30.02,North,357,0.0,0.0,31,0.00,,---,0.00,VWS V14.01,2013-09-04 01:14:00,
2013-09-03 19:19:00,72.9,40.5,30.02,North,357,0.0,0.0,31,0.00,,---,0.00,VWS V14.01,2013-09-04 01:19:00,
2013-09-03 19:24:00,72.5,41.0,30.02,North,357,0.0,0.0,32,0.00,,---,0.00,VWS V14.01,2013-09-04 01:24:00,
2013-09-03 19:29:00,72.1,40.7,30.02,North,357,0.0,0.0,32,0.00,,---,0.00,VWS V14.01,2013-09-04 01:29:00,
2013-09-03 19:34:00,71.6,40.2,30.02,North,357,0.0,0.0,32,0.00,,---,0.00,VWS V14.01,2013-09-04 01:34:00,
2013-09-03 19:39:00,71.1,40.5,30.02,North,357,0.0,0.0,33,0.00,,---,0.00,VWS V14.01,2013-09-04 01:39:00,
2013-09-03 19:44:00,70.7,40.2,30.02,North,357,0.0,0.0,33,0.00,,---,0.00,VWS V14.01,2013-09-04 01:44:00,
2013-09-03 19:49:00,70.2,40.5,30.02,North,357,0.0,0.0,34,0.00,,---,0.00,VWS V14.01,2013-09-04 01:49:00,
2013-09-03 19:54:00,69.8,40.9,30.05,North,357,0.0,0.0,35,0.00,,---,0.00,VWS V14.01,2013-09-04 01:54:00,
2013-09-03 19:59:00,69.4,41.3,30.05,North,357,0.0,0.0,36,0.00,,---,0.00,VWS V14.01,2013-09-04 01:59:00,
2013-09-03 20:04:00,69.3,41.2,30.05,NW,317,0.0,0.0,36,0.00,,---,0.00,VWS V14.01,2013-09-04 02:04:00,
2013-09-03 20:09:00,69.1,41.0,30.05,WSW,254,0.0,0.0,36,0.00,,---,0.00,VWS V14.01,2013-09-04 02:09:00,
2013-09-03 20:14:00,69.1,41.0,30.05,WSW,254,0.0,0.0,36,0.00,,---,0.00,VWS V14.01,2013-09-04 02:14:00,
2013-09-03 20:19:00,68.7,41.4,30.05,WSW,254,0.0,0.0,37,0.00,,---,0.00,VWS V14.01,2013-09-04 02:19:00,
2013-09-03 20:24:00,68.7,41.4,30.05,West,259,0.0,0.0,37,0.00,,---,0.00,VWS V14.01,2013-09-04 02:24:00,
2013-09-03 20:29:00,68.5,42.0,30.05,West,259,0.0,0.0,38,0.00,,---,0.00,VWS V14.01,2013-09-04 02:29:00,
2013-09-03 20:34:00,68.5,42.0,30.05,West,259,0.0,0.0,38,0.00,,---,0.00,VWS V14.01,2013-09-04 02:34:00,
2013-09-03 20:39:00,68.5,42.0,30.05,West,259,0.0,0.0,38,0.00,,---,0.00,VWS V14.01,2013-09-04 02:39:00,
2013-09-03 20:44:00,68.4,41.8,30.05,WSW,253,0.0,0.0,38,0.00,,---,0.00,VWS V14.01,2013-09-04 02:44:00,
2013-09-03 20:49:00,68.4,41.8,30.05,WSW,258,0.0,0.0,38,0.00,,---,0.00,VWS V14.01,2013-09-04 02:49:00,
2013-09-03 20:54:00,68.2,41.6,30.05,SSW,200,0.0,0.0,38,0.00,,---,0.00,VWS V14.01,2013-09-04 02:54:00,
2013-09-03 20:59:00,67.8,42.0,30.05,SSW,200,0.0,0.0,39,0.00,,---,0.00,VWS V14.01,2013-09-04 02:59:00,
2013-09-03 21:04:00,67.5,42.3,30.05,South,189,0.0,0.0,40,0.00,,---,0.00,VWS V14.01,2013-09-04 03:04:00,
2013-09-03 21:09:00,67.1,42.6,30.05,SSE,155,2.7,3.1,41,0.00,,---,0.00,VWS V14.01,2013-09-04 03:09:00,
2013-09-03 21:14:00,66.6,42.8,30.05,SSE,155,0.0,3.1,42,0.00,,---,0.00,VWS V14.01,2013-09-04 03:14:00,
2013-09-03 21:19:00,66.2,42.5,30.05,SSE,155,0.0,0.0,42,0.00,,---,0.00,VWS V14.01,2013-09-04 03:19:00,
2013-09-03 21:24:00,66.2,43.1,30.05,SSE,155,0.0,0.0,43,0.00,,---,0.00,VWS V14.01,2013-09-04 03:24:00,
2013-09-03 21:29:00,65.8,42.7,30.05,SSE,155,0.0,0.0,43,0.00,,---,0.00,VWS V14.01,2013-09-04 03:29:00,
2013-09-03 21:34:00,65.5,42.4,30.05,SSE,155,0.0,0.0,43,0.00,,---,0.00,VWS V14.01,2013-09-04 03:34:00,
2013-09-03 21:39:00,64.9,41.9,30.05,SSE,155,0.0,0.0,43,0.00,,---,0.00,VWS V14.01,2013-09-04 03:39:00,
2013-09-03 21:44:00,64.6,42.2,30.05,SSE,155,0.0,0.0,44,0.00,,---,0.00,VWS V14.01,2013-09-04 03:44:00,
2013-09-03 21:49:00,64.4,42.0,30.05,SSE,159,0.0,0.0,44,0.00,,---,0.00,VWS V14.01,2013-09-04 03:49:00,
2013-09-03 21:54:00,64.4,42.0,30.05,South,184,0.0,0.0,44,0.00,,---,0.00,VWS V14.01,2013-09-04 03:54:00,
2013-09-03 21:59:00,64.4,42.0,30.05,South,184,0.0,0.0,44,0.00,,---,0.00,VWS V14.01,2013-09-04 03:59:00,
2013-09-03 22:01:00,64.4,42.0,30.05,South,183,0.0,0.0,44,0.00,,---,0.00,VWS V14.01,2013-09-04 04:01:00,
2013-09-03 22:06:00,64.0,41.7,30.05,South,184,0.0,0.0,44,0.00,,---,0.00,VWS V14.01,2013-09-04 04:06:00,
2013-09-03 22:11:00,63.7,41.4,30.05,South,184,0.0,0.0,44,0.00,,---,0.00,VWS V14.01,2013-09-04 04:11:00,
2013-09-03 22:16:00,63.5,41.2,30.05,SSW,198,0.0,0.0,44,0.00,,---,0.00,VWS V14.01,2013-09-04 04:16:00,
2013-09-03 22:21:00,63.7,41.4,30.05,SSW,198,0.0,0.0,44,0.00,,---,0.00,VWS V14.01,2013-09-04 04:21:00,
2013-09-03 22:26:00,63.5,40.6,30.05,SSW,199,0.0,0.0,43,0.00,,---,0.00,VWS V14.01,2013-09-04 04:26:00,
2013-09-03 22:31:00,63.1,40.9,30.05,SSW,198,0.0,0.0,44,0.00,,---,0.00,VWS V14.01,2013-09-04 04:31:00,
2013-09-03 22:36:00,62.8,40.0,30.05,SSE,163,3.6,3.6,43,0.00,,---,0.00,VWS V14.01,2013-09-04 04:36:00,
2013-09-03 22:41:00,62.6,40.4,30.05,South,188,2.2,3.6,44,0.00,,---,0.00,VWS V14.01,2013-09-04 04:41:00,
2013-09-03 22:46:00,62.2,40.7,30.05,SSE,168,0.0,0.0,45,0.00,,---,0.00,VWS V14.01,2013-09-04 04:46:00,
2013-09-03 22:51:00,61.9,40.3,30.05,SSE,168,0.0,0.0,45,0.00,,---,0.00,VWS V14.01,2013-09-04 04:51:00,
2013-09-03 22:56:00,62.1,40.5,30.05,SSE,168,0.0,0.0,45,0.00,,---,0.00,VWS V14.01,2013-09-04 04:56:00,
2013-09-03 23:01:00,61.7,40.2,30.05,SSE,168,0.0,0.0,45,0.00,,---,0.00,VWS V14.01,2013-09-04 05:01:00,
2013-09-03 23:06:00,61.5,40.0,30.05,South,189,0.0,0.0,45,0.00,,---,0.00,VWS V14.01,2013-09-04 05:06:00,
2013-09-03 23:11:00,61.2,39.7,30.05,South,189,0.0,0.0,45,0.00,,---,0.00,VWS V14.01,2013-09-04 05:11:00,
2013-09-03 23:16:00,61.3,39.8,30.05,South,189,0.0,0.0,45,0.00,,---,0.00,VWS V14.01,2013-09-04 05:16:00,
2013-09-03 23:21:00,61.3,40.4,30.05,South,189,0.0,0.0,46,0.00,,---,0.00,VWS V14.01,2013-09-04 05:21:00,
2013-09-03 23:26:00,61.3,40.4,30.05,South,189,0.0,0.0,46,0.00,,---,0.00,VWS V14.01,2013-09-04 05:26:00,
2013-09-03 23:31:00,61.3,40.4,30.05,South,189,0.0,0.0,46,0.00,,---,0.00,VWS V14.01,2013-09-04 05:31:00,
2013-09-03 23:36:00,61.2,40.2,30.05,SSE,166,0.0,0.0,46,0.00,,---,0.00,VWS V14.01,2013-09-04 05:36:00,
2013-09-03 23:41:00,60.8,39.9,30.05,South,182,3.1,3.1,46,0.00,,---,0.00,VWS V14.01,2013-09-04 05:41:00,
2013-09-03 23:46:00,60.4,40.1,30.05,South,182,0.0,0.0,47,0.00,,---,0.00,VWS V14.01,2013-09-04 05:46:00,
2013-09-03 23:51:00,60.3,40.0,30.05,South,182,0.0,0.0,47,0.00,,---,0.00,VWS V14.01,2013-09-04 05:51:00,
2013-09-03 23:56:00,60.1,39.8,30.05,SSW,211,0.0,2.7,47,0.00,,---,0.00,VWS V14.01,2013-09-04 05:56:00,